sensor_id;sensor_type;location;lat;lon;timestamp;P1;durP1;ratioP1;P2;durP2;ratioP2
76290;SDS011;65100;46.884;17.410;2023-09-12T00:01:08;17.60;;;11.20;;
76290;SDS011;65100;46.884;17.410;2023-09-12T00:03:34;20.60;;;11.73;;
76290;SDS011;65100;46.884;17.410;2023-09-12T00:06:00;18.90;;;11.50;;
76290;SDS011;65100;46.884;17.410;2023-09-12T00:08:27;18.55;;;11.50;;
76290;SDS011;65100;46.884;17.410;2023-09-12T00:13:37;17.58;;;10.60;;
76290;SDS011;65100;46.884;17.410;2023-09-12T00:16:04;17.75;;;11.07;;
76290;SDS011;65100;46.884;17.410;2023-09-12T00:18:31;17.38;;;11.48;;
76290;SDS011;65100;46.884;17.410;2023-09-12T00:20:59;17.55;;;10.90;;
76290;SDS011;65100;46.884;17.410;2023-09-12T00:23:25;19.00;;;11.57;;
76290;SDS011;65100;46.884;17.410;2023-09-12T00:25:51;19.00;;;11.88;;
76290;SDS011;65100;46.884;17.410;2023-09-12T00:28:17;19.63;;;11.83;;
76290;SDS011;65100;46.884;17.410;2023-09-12T00:30:43;17.02;;;11.65;;
76290;SDS011;65100;46.884;17.410;2023-09-12T00:33:08;17.87;;;11.77;;
76290;SDS011;65100;46.884;17.410;2023-09-12T00:35:33;19.53;;;10.97;;
76290;SDS011;65100;46.884;17.410;2023-09-12T00:37:59;15.60;;;10.47;;
76290;SDS011;65100;46.884;17.410;2023-09-12T00:40:24;19.60;;;11.43;;
76290;SDS011;65100;46.884;17.410;2023-09-12T00:42:50;18.33;;;11.40;;
76290;SDS011;65100;46.884;17.410;2023-09-12T00:45:16;17.33;;;10.80;;
76290;SDS011;65100;46.884;17.410;2023-09-12T00:47:41;19.63;;;10.88;;
76290;SDS011;65100;46.884;17.410;2023-09-12T00:50:07;18.77;;;11.73;;
76290;SDS011;65100;46.884;17.410;2023-09-12T00:52:33;16.50;;;11.38;;
76290;SDS011;65100;46.884;17.410;2023-09-12T00:55:01;17.03;;;10.77;;
76290;SDS011;65100;46.884;17.410;2023-09-12T00:57:28;19.60;;;11.07;;
76290;SDS011;65100;46.884;17.410;2023-09-12T00:59:55;17.20;;;11.13;;
76290;SDS011;65100;46.884;17.410;2023-09-12T01:02:22;18.52;;;11.07;;
76290;SDS011;65100;46.884;17.410;2023-09-12T01:04:49;20.33;;;11.05;;
76290;SDS011;65100;46.884;17.410;2023-09-12T01:07:15;17.77;;;10.87;;
76290;SDS011;65100;46.884;17.410;2023-09-12T01:12:47;17.37;;;10.90;;
76290;SDS011;65100;46.884;17.410;2023-09-12T01:15:12;18.30;;;11.00;;
76290;SDS011;65100;46.884;17.410;2023-09-12T01:17:42;17.07;;;11.23;;
76290;SDS011;65100;46.884;17.410;2023-09-12T01:20:09;18.55;;;11.30;;
76290;SDS011;65100;46.884;17.410;2023-09-12T01:22:51;18.27;;;10.70;;
76290;SDS011;65100;46.884;17.410;2023-09-12T01:28:05;19.45;;;11.13;;
76290;SDS011;65100;46.884;17.410;2023-09-12T01:30:34;18.83;;;11.40;;
76290;SDS011;65100;46.884;17.410;2023-09-12T01:33:01;17.88;;;11.65;;
76290;SDS011;65100;46.884;17.410;2023-09-12T01:35:27;20.75;;;11.15;;
76290;SDS011;65100;46.884;17.410;2023-09-12T01:37:53;19.67;;;11.70;;
76290;SDS011;65100;46.884;17.410;2023-09-12T01:40:21;18.98;;;11.27;;
76290;SDS011;65100;46.884;17.410;2023-09-12T01:42:56;18.00;;;10.40;;
76290;SDS011;65100;46.884;17.410;2023-09-12T01:45:22;17.95;;;10.40;;
76290;SDS011;65100;46.884;17.410;2023-09-12T01:47:48;16.63;;;10.67;;
76290;SDS011;65100;46.884;17.410;2023-09-12T01:50:15;17.27;;;10.52;;
76290;SDS011;65100;46.884;17.410;2023-09-12T01:52:42;17.20;;;10.60;;
76290;SDS011;65100;46.884;17.410;2023-09-12T01:55:08;19.27;;;10.97;;
76290;SDS011;65100;46.884;17.410;2023-09-12T01:57:36;19.27;;;10.88;;
76290;SDS011;65100;46.884;17.410;2023-09-12T02:00:02;20.40;;;11.32;;
76290;SDS011;65100;46.884;17.410;2023-09-12T02:02:28;20.05;;;11.93;;
76290;SDS011;65100;46.884;17.410;2023-09-12T02:04:58;17.57;;;10.80;;
76290;SDS011;65100;46.884;17.410;2023-09-12T02:07:57;16.83;;;10.45;;
76290;SDS011;65100;46.884;17.410;2023-09-12T02:10:25;21.70;;;10.95;;
76290;SDS011;65100;46.884;17.410;2023-09-12T02:12:50;17.90;;;10.30;;
76290;SDS011;65100;46.884;17.410;2023-09-12T02:15:16;15.40;;;10.20;;
76290;SDS011;65100;46.884;17.410;2023-09-12T02:17:41;17.30;;;10.20;;
76290;SDS011;65100;46.884;17.410;2023-09-12T02:20:07;18.17;;;10.48;;
76290;SDS011;65100;46.884;17.410;2023-09-12T02:22:34;17.88;;;10.82;;
76290;SDS011;65100;46.884;17.410;2023-09-12T02:24:59;19.40;;;11.30;;
76290;SDS011;65100;46.884;17.410;2023-09-12T02:27:24;18.00;;;10.17;;
76290;SDS011;65100;46.884;17.410;2023-09-12T02:29:50;18.57;;;10.70;;
76290;SDS011;65100;46.884;17.410;2023-09-12T02:32:15;20.33;;;11.73;;
76290;SDS011;65100;46.884;17.410;2023-09-12T02:34:41;17.80;;;11.10;;
76290;SDS011;65100;46.884;17.410;2023-09-12T02:37:06;17.17;;;10.73;;
76290;SDS011;65100;46.884;17.410;2023-09-12T02:39:32;18.20;;;10.80;;
76290;SDS011;65100;46.884;17.410;2023-09-12T02:41:57;18.08;;;10.32;;
76290;SDS011;65100;46.884;17.410;2023-09-12T02:44:22;19.07;;;10.70;;
76290;SDS011;65100;46.884;17.410;2023-09-12T02:46:48;17.67;;;11.10;;
76290;SDS011;65100;46.884;17.410;2023-09-12T02:49:13;18.47;;;11.50;;
76290;SDS011;65100;46.884;17.410;2023-09-12T02:51:39;18.43;;;11.20;;
76290;SDS011;65100;46.884;17.410;2023-09-12T02:54:05;20.37;;;10.90;;
76290;SDS011;65100;46.884;17.410;2023-09-12T02:56:31;20.50;;;11.48;;
76290;SDS011;65100;46.884;17.410;2023-09-12T02:58:56;20.33;;;11.17;;
76290;SDS011;65100;46.884;17.410;2023-09-12T03:01:22;22.33;;;11.00;;
76290;SDS011;65100;46.884;17.410;2023-09-12T03:03:49;21.07;;;11.10;;
76290;SDS011;65100;46.884;17.410;2023-09-12T03:06:15;18.88;;;10.80;;
76290;SDS011;65100;46.884;17.410;2023-09-12T03:08:43;18.73;;;10.95;;
76290;SDS011;65100;46.884;17.410;2023-09-12T03:11:08;16.17;;;10.53;;
76290;SDS011;65100;46.884;17.410;2023-09-12T03:13:35;17.00;;;10.65;;
76290;SDS011;65100;46.884;17.410;2023-09-12T03:16:10;17.60;;;10.20;;
76290;SDS011;65100;46.884;17.410;2023-09-12T03:18:37;15.50;;;10.30;;
76290;SDS011;65100;46.884;17.410;2023-09-12T03:21:02;18.20;;;10.40;;
76290;SDS011;65100;46.884;17.410;2023-09-12T03:23:28;19.07;;;10.37;;
76290;SDS011;65100;46.884;17.410;2023-09-12T03:25:53;18.33;;;11.13;;
76290;SDS011;65100;46.884;17.410;2023-09-12T03:28:19;19.93;;;11.10;;
76290;SDS011;65100;46.884;17.410;2023-09-12T03:30:44;22.27;;;10.63;;
76290;SDS011;65100;46.884;17.410;2023-09-12T03:33:10;19.85;;;11.48;;
76290;SDS011;65100;46.884;17.410;2023-09-12T03:35:35;20.60;;;10.57;;
76290;SDS011;65100;46.884;17.410;2023-09-12T03:38:01;21.40;;;11.00;;
76290;SDS011;65100;46.884;17.410;2023-09-12T03:40:30;20.63;;;10.80;;
76290;SDS011;65100;46.884;17.410;2023-09-12T03:42:56;19.63;;;11.07;;
76290;SDS011;65100;46.884;17.410;2023-09-12T03:45:22;18.02;;;10.57;;
76290;SDS011;65100;46.884;17.410;2023-09-12T03:47:48;19.83;;;11.35;;
76290;SDS011;65100;46.884;17.410;2023-09-12T03:50:14;20.07;;;10.87;;
76290;SDS011;65100;46.884;17.410;2023-09-12T03:52:39;20.50;;;10.83;;
76290;SDS011;65100;46.884;17.410;2023-09-12T03:55:05;18.17;;;10.55;;
76290;SDS011;65100;46.884;17.410;2023-09-12T03:57:31;20.93;;;10.70;;
76290;SDS011;65100;46.884;17.410;2023-09-12T03:59:56;17.52;;;9.98;;
76290;SDS011;65100;46.884;17.410;2023-09-12T04:02:22;15.00;;;9.73;;
76290;SDS011;65100;46.884;17.410;2023-09-12T04:04:48;15.33;;;9.80;;
76290;SDS011;65100;46.884;17.410;2023-09-12T04:07:13;16.37;;;9.83;;
76290;SDS011;65100;46.884;17.410;2023-09-12T04:09:39;16.80;;;9.65;;
76290;SDS011;65100;46.884;17.410;2023-09-12T04:12:04;18.10;;;9.80;;
76290;SDS011;65100;46.884;17.410;2023-09-12T04:14:32;19.58;;;9.68;;
76290;SDS011;65100;46.884;17.410;2023-09-12T04:16:57;17.17;;;10.13;;
76290;SDS011;65100;46.884;17.410;2023-09-12T04:19:23;16.23;;;10.47;;
76290;SDS011;65100;46.884;17.410;2023-09-12T04:21:50;20.03;;;10.83;;
76290;SDS011;65100;46.884;17.410;2023-09-12T04:24:15;17.27;;;10.48;;
76290;SDS011;65100;46.884;17.410;2023-09-12T04:26:42;19.50;;;11.10;;
76290;SDS011;65100;46.884;17.410;2023-09-12T04:29:09;20.00;;;11.52;;
76290;SDS011;65100;46.884;17.410;2023-09-12T04:31:34;19.63;;;11.68;;
76290;SDS011;65100;46.884;17.410;2023-09-12T04:34:00;19.47;;;11.03;;
76290;SDS011;65100;46.884;17.410;2023-09-12T04:36:25;21.90;;;10.77;;
76290;SDS011;65100;46.884;17.410;2023-09-12T04:38:51;18.33;;;10.20;;
76290;SDS011;65100;46.884;17.410;2023-09-12T04:41:16;21.73;;;10.70;;
76290;SDS011;65100;46.884;17.410;2023-09-12T04:43:44;18.73;;;10.70;;
76290;SDS011;65100;46.884;17.410;2023-09-12T04:46:11;18.17;;;11.18;;
76290;SDS011;65100;46.884;17.410;2023-09-12T04:48:37;19.45;;;10.35;;
76290;SDS011;65100;46.884;17.410;2023-09-12T04:51:03;16.88;;;10.80;;
76290;SDS011;65100;46.884;17.410;2023-09-12T04:53:28;18.50;;;10.47;;
76290;SDS011;65100;46.884;17.410;2023-09-12T04:55:59;18.85;;;10.48;;
76290;SDS011;65100;46.884;17.410;2023-09-12T04:58:28;18.83;;;10.13;;
76290;SDS011;65100;46.884;17.410;2023-09-12T05:00:56;20.13;;;10.40;;
76290;SDS011;65100;46.884;17.410;2023-09-12T05:03:22;19.90;;;10.93;;
76290;SDS011;65100;46.884;17.410;2023-09-12T05:05:48;19.17;;;11.13;;
76290;SDS011;65100;46.884;17.410;2023-09-12T05:08:15;16.13;;;10.75;;
76290;SDS011;65100;46.884;17.410;2023-09-12T05:10:40;22.97;;;11.10;;
76290;SDS011;65100;46.884;17.410;2023-09-12T05:13:06;18.57;;;11.07;;
76290;SDS011;65100;46.884;17.410;2023-09-12T05:15:31;17.75;;;11.65;;
76290;SDS011;65100;46.884;17.410;2023-09-12T05:17:57;18.40;;;10.87;;
76290;SDS011;65100;46.884;17.410;2023-09-12T05:20:22;17.03;;;11.10;;
76290;SDS011;65100;46.884;17.410;2023-09-12T05:22:48;19.88;;;10.68;;
76290;SDS011;65100;46.884;17.410;2023-09-12T05:25:13;18.97;;;10.77;;
76290;SDS011;65100;46.884;17.410;2023-09-12T05:27:39;19.30;;;10.80;;
76290;SDS011;65100;46.884;17.410;2023-09-12T05:30:04;16.58;;;10.90;;
76290;SDS011;65100;46.884;17.410;2023-09-12T05:32:30;17.73;;;10.90;;
76290;SDS011;65100;46.884;17.410;2023-09-12T05:34:56;18.67;;;11.03;;
76290;SDS011;65100;46.884;17.410;2023-09-12T05:37:21;19.43;;;11.30;;
76290;SDS011;65100;46.884;17.410;2023-09-12T05:39:47;20.20;;;12.25;;
76290;SDS011;65100;46.884;17.410;2023-09-12T05:42:12;20.93;;;11.80;;
76290;SDS011;65100;46.884;17.410;2023-09-12T05:44:40;19.75;;;11.93;;
76290;SDS011;65100;46.884;17.410;2023-09-12T05:47:05;21.20;;;12.60;;
76290;SDS011;65100;46.884;17.410;2023-09-12T05:49:31;16.30;;;11.23;;
76290;SDS011;65100;46.884;17.410;2023-09-12T05:51:59;19.27;;;11.18;;
76290;SDS011;65100;46.884;17.410;2023-09-12T05:54:24;17.13;;;11.17;;
76290;SDS011;65100;46.884;17.410;2023-09-12T05:56:50;16.95;;;11.40;;
76290;SDS011;65100;46.884;17.410;2023-09-12T05:59:17;19.67;;;12.80;;
76290;SDS011;65100;46.884;17.410;2023-09-12T06:01:43;17.97;;;11.37;;
76290;SDS011;65100;46.884;17.410;2023-09-12T06:04:08;16.67;;;10.77;;
76290;SDS011;65100;46.884;17.410;2023-09-12T06:06:34;14.70;;;10.98;;
76290;SDS011;65100;46.884;17.410;2023-09-12T06:09:00;23.00;;;14.80;;
76290;SDS011;65100;46.884;17.410;2023-09-12T06:11:25;21.23;;;14.30;;
76290;SDS011;65100;46.884;17.410;2023-09-12T06:13:51;17.30;;;12.00;;
76290;SDS011;65100;46.884;17.410;2023-09-12T06:16:16;18.80;;;11.57;;
76290;SDS011;65100;46.884;17.410;2023-09-12T06:18:41;20.08;;;12.15;;
76290;SDS011;65100;46.884;17.410;2023-09-12T06:21:07;16.73;;;11.70;;
76290;SDS011;65100;46.884;17.410;2023-09-12T06:23:33;18.85;;;11.73;;
76290;SDS011;65100;46.884;17.410;2023-09-12T06:25:59;21.00;;;12.02;;
76290;SDS011;65100;46.884;17.410;2023-09-12T06:28:25;18.70;;;11.60;;
76290;SDS011;65100;46.884;17.410;2023-09-12T06:30:52;22.80;;;11.52;;
76290;SDS011;65100;46.884;17.410;2023-09-12T06:33:17;18.40;;;11.80;;
76290;SDS011;65100;46.884;17.410;2023-09-12T06:35:43;18.87;;;11.50;;
76290;SDS011;65100;46.884;17.410;2023-09-12T06:38:08;18.00;;;11.68;;
76290;SDS011;65100;46.884;17.410;2023-09-12T06:40:34;18.77;;;11.23;;
76290;SDS011;65100;46.884;17.410;2023-09-12T06:42:59;19.60;;;11.57;;
76290;SDS011;65100;46.884;17.410;2023-09-12T06:45:25;21.60;;;11.87;;
76290;SDS011;65100;46.884;17.410;2023-09-12T06:47:50;16.52;;;11.48;;
76290;SDS011;65100;46.884;17.410;2023-09-12T06:50:15;20.63;;;11.23;;
76290;SDS011;65100;46.884;17.410;2023-09-12T06:52:41;23.53;;;11.50;;
76290;SDS011;65100;46.884;17.410;2023-09-12T06:55:06;23.63;;;11.53;;
76290;SDS011;65100;46.884;17.410;2023-09-12T06:57:32;24.33;;;11.70;;
76290;SDS011;65100;46.884;17.410;2023-09-12T06:59:57;29.20;;;12.23;;
76290;SDS011;65100;46.884;17.410;2023-09-12T07:02:23;33.30;;;13.90;;
76290;SDS011;65100;46.884;17.410;2023-09-12T07:04:48;36.92;;;15.60;;
76290;SDS011;65100;46.884;17.410;2023-09-12T07:07:14;38.93;;;15.90;;
76290;SDS011;65100;46.884;17.410;2023-09-12T07:09:39;27.83;;;13.63;;
76290;SDS011;65100;46.884;17.410;2023-09-12T07:12:05;28.30;;;12.90;;
76290;SDS011;65100;46.884;17.410;2023-09-12T07:14:31;25.80;;;12.18;;
76290;SDS011;65100;46.884;17.410;2023-09-12T07:16:56;27.93;;;11.60;;
76290;SDS011;65100;46.884;17.410;2023-09-12T07:19:22;20.30;;;11.40;;
76290;SDS011;65100;46.884;17.410;2023-09-12T07:21:47;18.03;;;11.20;;
76290;SDS011;65100;46.884;17.410;2023-09-12T07:24:12;19.67;;;11.30;;
76290;SDS011;65100;46.884;17.410;2023-09-12T07:26:38;17.77;;;10.23;;
76290;SDS011;65100;46.884;17.410;2023-09-12T07:29:03;17.67;;;11.13;;
76290;SDS011;65100;46.884;17.410;2023-09-12T07:31:30;17.63;;;11.20;;
76290;SDS011;65100;46.884;17.410;2023-09-12T07:33:56;17.15;;;10.60;;
76290;SDS011;65100;46.884;17.410;2023-09-12T07:36:22;18.53;;;11.47;;
76290;SDS011;65100;46.884;17.410;2023-09-12T07:38:47;20.60;;;12.03;;
76290;SDS011;65100;46.884;17.410;2023-09-12T07:41:13;17.17;;;11.52;;
76290;SDS011;65100;46.884;17.410;2023-09-12T07:43:38;18.70;;;11.43;;
76290;SDS011;65100;46.884;17.410;2023-09-12T07:46:05;18.85;;;11.40;;
76290;SDS011;65100;46.884;17.410;2023-09-12T07:48:30;16.10;;;11.03;;
76290;SDS011;65100;46.884;17.410;2023-09-12T07:50:56;18.07;;;10.97;;
76290;SDS011;65100;46.884;17.410;2023-09-12T07:53:21;15.07;;;10.75;;
76290;SDS011;65100;46.884;17.410;2023-09-12T07:55:47;19.60;;;11.23;;
76290;SDS011;65100;46.884;17.410;2023-09-12T07:58:17;19.45;;;11.40;;
76290;SDS011;65100;46.884;17.410;2023-09-12T08:00:46;18.90;;;11.70;;
76290;SDS011;65100;46.884;17.410;2023-09-12T08:03:12;17.50;;;11.30;;
76290;SDS011;65100;46.884;17.410;2023-09-12T08:05:37;15.90;;;11.30;;
76290;SDS011;65100;46.884;17.410;2023-09-12T08:08:06;16.98;;;11.95;;
76290;SDS011;65100;46.884;17.410;2023-09-12T08:10:31;17.90;;;12.17;;
76290;SDS011;65100;46.884;17.410;2023-09-12T08:12:57;17.87;;;11.90;;
76290;SDS011;65100;46.884;17.410;2023-09-12T08:15:22;17.97;;;11.97;;
76290;SDS011;65100;46.884;17.410;2023-09-12T08:17:48;20.70;;;12.23;;
76290;SDS011;65100;46.884;17.410;2023-09-12T08:20:16;18.98;;;11.93;;
76290;SDS011;65100;46.884;17.410;2023-09-12T08:22:42;20.57;;;11.43;;
76290;SDS011;65100;46.884;17.410;2023-09-12T08:25:08;19.23;;;11.73;;
76290;SDS011;65100;46.884;17.410;2023-09-12T08:27:35;18.90;;;11.80;;
76290;SDS011;65100;46.884;17.410;2023-09-12T08:30:01;18.20;;;11.07;;
76290;SDS011;65100;46.884;17.410;2023-09-12T08:32:27;17.20;;;11.20;;
76290;SDS011;65100;46.884;17.410;2023-09-12T08:34:52;18.60;;;11.30;;
76290;SDS011;65100;46.884;17.410;2023-09-12T08:37:18;16.90;;;10.95;;
76290;SDS011;65100;46.884;17.410;2023-09-12T08:39:44;17.07;;;10.90;;
76290;SDS011;65100;46.884;17.410;2023-09-12T08:42:13;14.95;;;10.82;;
76290;SDS011;65100;46.884;17.410;2023-09-12T08:44:40;15.65;;;10.50;;
76290;SDS011;65100;46.884;17.410;2023-09-12T08:47:07;17.67;;;10.75;;
76290;SDS011;65100;46.884;17.410;2023-09-12T08:49:34;15.63;;;10.60;;
76290;SDS011;65100;46.884;17.410;2023-09-12T08:52:01;16.73;;;10.80;;
76290;SDS011;65100;46.884;17.410;2023-09-12T08:54:26;17.70;;;10.77;;
76290;SDS011;65100;46.884;17.410;2023-09-12T08:56:52;16.85;;;10.75;;
76290;SDS011;65100;46.884;17.410;2023-09-12T08:59:19;18.45;;;10.85;;
76290;SDS011;65100;46.884;17.410;2023-09-12T09:01:45;16.50;;;11.10;;
76290;SDS011;65100;46.884;17.410;2023-09-12T09:04:11;16.02;;;10.80;;
76290;SDS011;65100;46.884;17.410;2023-09-12T09:06:38;18.17;;;10.88;;
76290;SDS011;65100;46.884;17.410;2023-09-12T09:09:07;18.98;;;10.98;;
76290;SDS011;65100;46.884;17.410;2023-09-12T09:11:33;19.25;;;10.60;;
76290;SDS011;65100;46.884;17.410;2023-09-12T09:14:00;17.33;;;11.00;;
76290;SDS011;65100;46.884;17.410;2023-09-12T09:16:29;17.98;;;10.90;;
76290;SDS011;65100;46.884;17.410;2023-09-12T09:21:28;16.17;;;10.38;;
76290;SDS011;65100;46.884;17.410;2023-09-12T09:23:58;15.63;;;10.60;;
76290;SDS011;65100;46.884;17.410;2023-09-12T09:26:25;14.07;;;10.23;;
76290;SDS011;65100;46.884;17.410;2023-09-12T09:29:01;16.90;;;10.70;;
76290;SDS011;65100;46.884;17.410;2023-09-12T09:31:42;15.57;;;10.55;;
76290;SDS011;65100;46.884;17.410;2023-09-12T09:34:15;15.93;;;10.67;;
76290;SDS011;65100;46.884;17.410;2023-09-12T09:36:48;16.05;;;10.77;;
76290;SDS011;65100;46.884;17.410;2023-09-12T09:39:19;17.27;;;11.00;;
76290;SDS011;65100;46.884;17.410;2023-09-12T09:41:49;19.00;;;10.57;;
76290;SDS011;65100;46.884;17.410;2023-09-12T09:44:16;17.02;;;10.75;;
76290;SDS011;65100;46.884;17.410;2023-09-12T09:46:45;17.90;;;11.33;;
76290;SDS011;65100;46.884;17.410;2023-09-12T09:49:15;17.27;;;10.80;;
76290;SDS011;65100;46.884;17.410;2023-09-12T09:51:42;17.73;;;10.85;;
76290;SDS011;65100;46.884;17.410;2023-09-12T09:54:09;15.80;;;11.23;;
76290;SDS011;65100;46.884;17.410;2023-09-12T09:56:48;16.50;;;11.15;;
76290;SDS011;65100;46.884;17.410;2023-09-12T09:59:18;16.13;;;11.37;;
76290;SDS011;65100;46.884;17.410;2023-09-12T10:01:49;18.45;;;12.35;;
76290;SDS011;65100;46.884;17.410;2023-09-12T10:04:16;17.05;;;12.23;;
76290;SDS011;65100;46.884;17.410;2023-09-12T10:06:43;18.10;;;12.07;;
76290;SDS011;65100;46.884;17.410;2023-09-12T10:09:14;18.30;;;12.57;;
76290;SDS011;65100;46.884;17.410;2023-09-12T10:11:41;17.27;;;12.10;;
76290;SDS011;65100;46.884;17.410;2023-09-12T10:14:08;17.40;;;12.52;;
76290;SDS011;65100;46.884;17.410;2023-09-12T10:16:50;17.15;;;12.45;;
76290;SDS011;65100;46.884;17.410;2023-09-12T10:19:24;19.85;;;12.27;;
76290;SDS011;65100;46.884;17.410;2023-09-12T10:21:59;18.80;;;12.60;;
76290;SDS011;65100;46.884;17.410;2023-09-12T10:24:29;17.70;;;12.10;;
76290;SDS011;65100;46.884;17.410;2023-09-12T10:26:56;15.98;;;11.88;;
76290;SDS011;65100;46.884;17.410;2023-09-12T10:29:22;17.33;;;12.25;;
76290;SDS011;65100;46.884;17.410;2023-09-12T10:31:48;18.20;;;12.50;;
76290;SDS011;65100;46.884;17.410;2023-09-12T10:34:14;16.58;;;11.93;;
76290;SDS011;65100;46.884;17.410;2023-09-12T10:36:41;19.17;;;11.82;;
76290;SDS011;65100;46.884;17.410;2023-09-12T10:39:08;17.05;;;11.68;;
76290;SDS011;65100;46.884;17.410;2023-09-12T10:41:37;17.20;;;11.75;;
76290;SDS011;65100;46.884;17.410;2023-09-12T10:44:07;17.00;;;11.80;;
76290;SDS011;65100;46.884;17.410;2023-09-12T10:46:38;16.15;;;12.02;;
76290;SDS011;65100;46.884;17.410;2023-09-12T10:49:07;18.17;;;12.18;;
76290;SDS011;65100;46.884;17.410;2023-09-12T10:51:46;15.43;;;12.05;;
76290;SDS011;65100;46.884;17.410;2023-09-12T10:54:13;15.65;;;12.02;;
76290;SDS011;65100;46.884;17.410;2023-09-12T10:56:41;16.53;;;11.80;;
76290;SDS011;65100;46.884;17.410;2023-09-12T11:01:43;18.60;;;11.88;;
76290;SDS011;65100;46.884;17.410;2023-09-12T11:06:44;17.42;;;10.93;;
76290;SDS011;65100;46.884;17.410;2023-09-12T11:11:46;17.25;;;12.15;;
76290;SDS011;65100;46.884;17.410;2023-09-12T11:14:12;20.20;;;11.88;;
76290;SDS011;65100;46.884;17.410;2023-09-12T11:16:38;19.48;;;11.25;;
76290;SDS011;65100;46.884;17.410;2023-09-12T11:19:18;17.63;;;11.70;;
76290;SDS011;65100;46.884;17.410;2023-09-12T11:21:44;17.20;;;11.45;;
76290;SDS011;65100;46.884;17.410;2023-09-12T11:24:10;17.05;;;11.27;;
76290;SDS011;65100;46.884;17.410;2023-09-12T11:26:58;15.93;;;11.85;;
76290;SDS011;65100;46.884;17.410;2023-09-12T11:29:30;17.42;;;11.18;;
76290;SDS011;65100;46.884;17.410;2023-09-12T11:32:01;17.53;;;11.80;;
76290;SDS011;65100;46.884;17.410;2023-09-12T11:34:28;15.43;;;11.10;;
76290;SDS011;65100;46.884;17.410;2023-09-12T11:36:57;17.88;;;11.30;;
76290;SDS011;65100;46.884;17.410;2023-09-12T11:39:28;19.17;;;11.23;;
76290;SDS011;65100;46.884;17.410;2023-09-12T11:41:57;15.88;;;11.48;;
76290;SDS011;65100;46.884;17.410;2023-09-12T11:44:23;17.03;;;11.60;;
76290;SDS011;65100;46.884;17.410;2023-09-12T11:46:50;18.40;;;11.40;;
76290;SDS011;65100;46.884;17.410;2023-09-12T11:49:20;15.50;;;11.27;;
76290;SDS011;65100;46.884;17.410;2023-09-12T11:54:57;18.67;;;11.88;;
76290;SDS011;65100;46.884;17.410;2023-09-12T11:57:22;16.27;;;11.70;;
76290;SDS011;65100;46.884;17.410;2023-09-12T11:59:48;17.40;;;11.23;;
76290;SDS011;65100;46.884;17.410;2023-09-12T12:02:14;16.65;;;11.80;;
76290;SDS011;65100;46.884;17.410;2023-09-12T12:04:40;17.50;;;12.27;;
76290;SDS011;65100;46.884;17.410;2023-09-12T12:07:06;16.50;;;11.80;;
76290;SDS011;65100;46.884;17.410;2023-09-12T12:09:33;15.95;;;11.70;;
76290;SDS011;65100;46.884;17.410;2023-09-12T12:12:09;19.17;;;12.00;;
76290;SDS011;65100;46.884;17.410;2023-09-12T12:14:35;18.45;;;11.65;;
76290;SDS011;65100;46.884;17.410;2023-09-12T12:17:08;16.20;;;11.30;;
76290;SDS011;65100;46.884;17.410;2023-09-12T12:19:34;18.75;;;12.10;;
76290;SDS011;65100;46.884;17.410;2023-09-12T12:22:01;14.52;;;11.27;;
76290;SDS011;65100;46.884;17.410;2023-09-12T12:24:35;16.15;;;11.75;;
76290;SDS011;65100;46.884;17.410;2023-09-12T12:27:03;15.13;;;11.37;;
76290;SDS011;65100;46.884;17.410;2023-09-12T12:29:29;20.05;;;11.73;;
76290;SDS011;65100;46.884;17.410;2023-09-12T12:31:59;19.17;;;11.65;;
76290;SDS011;65100;46.884;17.410;2023-09-12T12:34:26;15.95;;;11.40;;
76290;SDS011;65100;46.884;17.410;2023-09-12T12:36:55;16.50;;;11.50;;
76290;SDS011;65100;46.884;17.410;2023-09-12T12:39:20;17.17;;;11.77;;
76290;SDS011;65100;46.884;17.410;2023-09-12T12:41:47;17.35;;;11.60;;
76290;SDS011;65100;46.884;17.410;2023-09-12T12:44:13;21.07;;;11.50;;
76290;SDS011;65100;46.884;17.410;2023-09-12T12:46:51;16.70;;;11.52;;
76290;SDS011;65100;46.884;17.410;2023-09-12T12:49:18;17.83;;;11.50;;
76290;SDS011;65100;46.884;17.410;2023-09-12T12:51:44;17.17;;;11.40;;
76290;SDS011;65100;46.884;17.410;2023-09-12T12:54:10;20.55;;;11.18;;
76290;SDS011;65100;46.884;17.410;2023-09-12T12:56:35;20.10;;;11.02;;
76290;SDS011;65100;46.884;17.410;2023-09-12T12:59:03;18.50;;;11.70;;
76290;SDS011;65100;46.884;17.410;2023-09-12T13:01:33;16.98;;;11.00;;
76290;SDS011;65100;46.884;17.410;2023-09-12T13:03:59;16.83;;;11.85;;
76290;SDS011;65100;46.884;17.410;2023-09-12T13:06:24;16.27;;;11.47;;
76290;SDS011;65100;46.884;17.410;2023-09-12T13:08:52;16.08;;;11.73;;
76290;SDS011;65100;46.884;17.410;2023-09-12T13:11:17;20.35;;;11.55;;
76290;SDS011;65100;46.884;17.410;2023-09-12T13:13:43;20.17;;;11.60;;
76290;SDS011;65100;46.884;17.410;2023-09-12T13:16:10;19.55;;;11.13;;
76290;SDS011;65100;46.884;17.410;2023-09-12T13:18:38;17.23;;;11.02;;
76290;SDS011;65100;46.884;17.410;2023-09-12T13:21:04;14.60;;;10.80;;
76290;SDS011;65100;46.884;17.410;2023-09-12T13:23:30;13.70;;;10.88;;
76290;SDS011;65100;46.884;17.410;2023-09-12T13:25:56;15.45;;;11.38;;
76290;SDS011;65100;46.884;17.410;2023-09-12T13:28:22;16.90;;;10.83;;
76290;SDS011;65100;46.884;17.410;2023-09-12T13:30:51;17.63;;;10.90;;
76290;SDS011;65100;46.884;17.410;2023-09-12T13:33:17;15.75;;;10.73;;
76290;SDS011;65100;46.884;17.410;2023-09-12T13:35:43;15.35;;;10.88;;
76290;SDS011;65100;46.884;17.410;2023-09-12T13:38:08;17.17;;;11.07;;
76290;SDS011;65100;46.884;17.410;2023-09-12T13:40:40;16.02;;;10.93;;
76290;SDS011;65100;46.884;17.410;2023-09-12T13:43:07;14.37;;;10.73;;
76290;SDS011;65100;46.884;17.410;2023-09-12T13:45:33;14.98;;;10.50;;
76290;SDS011;65100;46.884;17.410;2023-09-12T13:47:59;17.80;;;10.82;;
76290;SDS011;65100;46.884;17.410;2023-09-12T13:50:25;16.40;;;10.37;;
76290;SDS011;65100;46.884;17.410;2023-09-12T13:52:53;19.17;;;10.60;;
76290;SDS011;65100;46.884;17.410;2023-09-12T13:55:20;19.58;;;10.73;;
76290;SDS011;65100;46.884;17.410;2023-09-12T13:57:46;14.85;;;10.73;;
76290;SDS011;65100;46.884;17.410;2023-09-12T14:00:12;14.50;;;10.33;;
76290;SDS011;65100;46.884;17.410;2023-09-12T14:02:37;17.03;;;10.80;;
76290;SDS011;65100;46.884;17.410;2023-09-12T14:05:03;16.10;;;10.77;;
76290;SDS011;65100;46.884;17.410;2023-09-12T14:07:28;19.17;;;10.53;;
76290;SDS011;65100;46.884;17.410;2023-09-12T14:09:54;16.63;;;10.70;;
76290;SDS011;65100;46.884;17.410;2023-09-12T14:12:24;17.13;;;10.20;;
76290;SDS011;65100;46.884;17.410;2023-09-12T14:14:50;16.27;;;10.45;;
76290;SDS011;65100;46.884;17.410;2023-09-12T14:17:16;17.55;;;10.40;;
76290;SDS011;65100;46.884;17.410;2023-09-12T14:19:42;20.57;;;10.67;;
76290;SDS011;65100;46.884;17.410;2023-09-12T14:22:07;14.07;;;10.23;;
76290;SDS011;65100;46.884;17.410;2023-09-12T14:24:33;16.98;;;10.70;;
76290;SDS011;65100;46.884;17.410;2023-09-12T14:26:58;15.63;;;9.90;;
76290;SDS011;65100;46.884;17.410;2023-09-12T14:29:24;15.80;;;10.17;;